Time;durP1;ratioP1;P1;durP2;ratioP2;P2;SDS_P1;SDS_P2;PMS_P1;PMS_P2;Temp;Humidity;BMP_temperature;BMP_pressure;BME280_temperature;BME280_humidity;BME280_pressure;Samples;Min_cycle;Max_cycle;Signal;HPM_P1;HPM_P2
2024/01/18 00:01:36;;;;;;;13.05;8.82;;;4.50;61.30;6.50;99132.00;;;;5030607;28;20196;-72
2024/01/18 00:04:04;;;;;;;12.20;8.40;;;4.50;61.40;6.50;99140.00;;;;5026790;28;20295;-73
2024/01/18 00:06:32;;;;;;;14.25;9.07;;;4.50;61.50;6.40;99142.00;;;;5027229;28;20303;-73
2024/01/18 00:08:59;;;;;;;13.82;8.15;;;4.50;61.50;6.40;99150.00;;;;5033204;28;20192;-74
2024/01/18 00:11:27;;;;;;;12.30;8.43;;;4.50;61.60;6.40;99150.00;;;;5034142;28;20681;-73
2024/01/18 00:13:55;;;;;;;13.27;8.77;;;4.40;61.50;6.40;99158.00;;;;5034150;28;20208;-73
2024/01/18 00:16:22;;;;;;;11.93;8.60;;;4.40;61.60;6.30;99160.00;;;;5032610;28;20197;-73
2024/01/18 00:18:49;;;;;;;14.60;8.73;;;4.40;61.60;6.30;99168.00;;;;5032455;28;20192;-73
2024/01/18 00:21:17;;;;;;;14.15;8.80;;;4.40;61.70;6.20;99162.00;;;;5034043;28;20203;-73
2024/01/18 00:23:44;;;;;;;10.38;8.23;;;4.30;61.60;6.20;99175.00;;;;5035921;28;20224;-73
2024/01/18 00:26:11;;;;;;;10.45;8.00;;;4.30;61.60;6.20;99166.00;;;;5032762;28;20228;-73
2024/01/18 00:28:38;;;;;;;11.63;8.30;;;4.30;61.60;6.20;99171.00;;;;5034549;28;20196;-73
2024/01/18 00:31:05;;;;;;;11.18;8.32;;;4.30;61.60;6.10;99175.00;;;;5033440;28;20279;-73
2024/01/18 00:33:32;;;;;;;11.23;8.02;;;4.30;61.60;6.10;99174.00;;;;5033798;28;20295;-73
2024/01/18 00:35:59;;;;;;;12.15;8.48;;;4.20;61.60;6.10;99169.00;;;;5033643;28;20299;-74
2024/01/18 00:38:28;;;;;;;11.43;7.43;;;4.20;61.70;6.10;99175.00;;;;5033432;28;20200;-74
2024/01/18 00:40:55;;;;;;;11.60;6.85;;;4.20;61.80;6.00;99179.00;;;;5041204;28;20200;-74
2024/01/18 00:43:22;;;;;;;10.43;7.72;;;4.10;61.90;6.00;99182.00;;;;5034112;28;20203;-74
2024/01/18 00:45:49;;;;;;;11.70;8.13;;;4.10;62.60;6.00;99181.00;;;;5033703;28;20323;-74
2024/01/18 00:48:16;;;;;;;9.13;6.97;;;4.10;61.80;6.00;99186.00;;;;5033882;28;20202;-74
2024/01/18 00:50:43;;;;;;;10.10;7.63;;;4.10;61.80;6.00;99189.00;;;;5033032;28;20638;-74
2024/01/18 00:53:10;;;;;;;8.43;6.60;;;4.00;61.80;6.00;99191.00;;;;5033605;28;20197;-74
2024/01/18 00:55:38;;;;;;;10.45;7.22;;;4.00;61.90;5.90;99189.00;;;;5033812;28;20198;-74
2024/01/18 00:58:05;;;;;;;9.15;7.00;;;4.00;62.00;5.90;99196.00;;;;5038856;28;20288;-73
2024/01/18 01:00:32;;;;;;;8.75;6.82;;;4.00;62.00;5.90;99202.00;;;;5032565;28;20196;-74
2024/01/18 01:02:59;;;;;;;9.63;6.70;;;4.00;62.70;5.90;99201.00;;;;5033353;28;20231;-74
2024/01/18 01:05:27;;;;;;;8.73;6.35;;;4.00;62.10;5.90;99208.00;;;;5032721;28;20247;-74
2024/01/18 01:07:54;;;;;;;8.05;6.45;;;3.90;62.10;5.80;99207.00;;;;5032740;28;20657;-74
2024/01/18 01:10:21;;;;;;;8.85;6.57;;;4.00;62.20;5.80;99211.00;;;;5032858;28;20203;-73
2024/01/18 01:12:49;;;;;;;10.55;7.20;;;3.90;62.20;5.80;99209.00;;;;5032045;28;20200;-74
2024/01/18 01:15:17;;;;;;;8.85;6.75;;;3.90;62.10;5.80;99219.00;;;;5047034;28;20196;-74
2024/01/18 01:17:44;;;;;;;9.05;6.97;;;3.90;62.10;5.80;99226.00;;;;5033589;28;20211;-75
2024/01/18 01:20:12;;;;;;;15.55;8.77;;;3.90;62.10;5.70;99237.00;;;;5032215;28;20204;-73
2024/01/18 01:22:39;;;;;;;18.25;10.48;;;3.90;62.10;5.70;99230.00;;;;5027100;28;20260;-74
2024/01/18 01:25:07;;;;;;;22.50;11.52;;;3.90;62.20;5.70;99224.00;;;;5032513;28;20250;-74
2024/01/18 01:27:34;;;;;;;21.23;11.90;;;3.90;62.20;5.70;99222.00;;;;5031881;28;20204;-74
2024/01/18 01:30:03;;;;;;;20.85;12.32;;;3.80;62.10;5.70;99227.00;;;;5033192;28;20560;-74
2024/01/18 01:32:30;;;;;;;15.07;10.55;;;3.80;62.10;5.70;99234.00;;;;5030794;28;20731;-74
2024/01/18 01:34:57;;;;;;;11.45;7.85;;;3.80;62.10;5.60;99235.00;;;;5043825;28;20571;-74
2024/01/18 01:37:24;;;;;;;11.40;7.28;;;3.80;62.10;5.60;99238.00;;;;5032419;28;20208;-75
2024/01/18 01:39:51;;;;;;;9.88;6.55;;;3.80;62.10;5.60;99235.00;;;;5031505;28;20188;-74
2024/01/18 01:42:18;;;;;;;9.15;6.93;;;3.80;62.10;5.60;99229.00;;;;5028899;28;20683;-74
2024/01/18 01:44:45;;;;;;;10.18;6.95;;;3.80;62.10;5.60;99238.00;;;;5032970;28;20223;-74
2024/01/18 01:47:13;;;;;;;9.40;6.05;;;3.80;62.10;5.50;99242.00;;;;5034907;28;20604;-74
2024/01/18 01:49:41;;;;;;;15.05;7.95;;;3.70;62.00;5.50;99249.00;;;;5052407;28;20573;-75
2024/01/18 01:52:08;;;;;;;10.63;7.38;;;3.70;62.00;5.50;99246.00;;;;5036342;28;20582;-75
2024/01/18 01:54:36;;;;;;;10.05;7.65;;;3.70;62.10;5.50;99254.00;;;;5032353;28;20204;-74
2024/01/18 01:57:05;;;;;;;11.75;7.15;;;3.70;62.00;5.50;99248.00;;;;5032227;28;20298;-74
2024/01/18 01:59:33;;;;;;;9.88;7.28;;;3.60;61.90;5.50;99247.00;;;;5031716;28;20573;-74
2024/01/18 02:02:00;;;;;;;11.60;8.02;;;3.60;61.90;5.50;99255.00;;;;5031238;28;20279;-74
2024/01/18 02:04:30;;;;;;;13.05;7.63;;;3.60;62.00;5.40;99251.00;;;;5021091;28;20211;-73
2024/01/18 02:06:58;;;;;;;11.70;7.75;;;3.50;61.90;5.40;99256.00;;;;5052391;28;20223;-74
2024/01/18 02:09:26;;;;;;;12.05;7.72;;;3.50;61.90;5.40;99267.00;;;;5031948;28;20206;-74
2024/01/18 02:11:53;;;;;;;11.07;7.35;;;3.50;62.00;5.40;99260.00;;;;5024762;28;20203;-74
2024/01/18 02:14:20;;;;;;;11.52;7.45;;;3.50;62.00;5.40;99263.00;;;;5032085;28;20303;-75
2024/01/18 02:16:47;;;;;;;10.98;8.02;;;3.50;62.10;5.30;99265.00;;;;5031238;28;20199;-74
2024/01/18 02:19:14;;;;;;;10.07;7.47;;;3.40;62.00;5.30;99271.00;;;;5032013;28;20197;-75
2024/01/18 02:21:43;;;;;;;7.32;5.30;;;3.40;62.10;5.30;99269.00;;;;5037295;28;20302;-74
2024/01/18 02:24:18;;;;;;;8.50;5.30;;;3.40;62.10;5.20;99271.00;;;;5051674;28;20550;-76
2024/01/18 02:26:47;;;;;;;6.82;4.47;;;3.40;62.10;5.20;99266.00;;;;5045046;28;20338;-76
2024/01/18 02:29:14;;;;;;;9.30;6.07;;;3.30;62.00;5.20;99268.00;;;;5031833;28;20196;-76
2024/01/18 02:31:41;;;;;;;8.38;6.38;;;3.30;62.00;5.20;99275.00;;;;5030825;28;20283;-76
2024/01/18 02:34:13;;;;;;;12.30;7.03;;;3.30;62.70;5.10;99274.00;;;;5030389;28;20599;-76
2024/01/18 02:36:40;;;;;;;11.73;6.65;;;3.30;62.00;5.10;99277.00;;;;5030398;28;20200;-76
2024/01/18 02:39:07;;;;;;;10.10;6.45;;;3.20;61.90;5.10;99278.00;;;;5032039;28;20207;-76
2024/01/18 02:41:34;;;;;;;9.45;6.25;;;3.20;61.90;5.10;99278.00;;;;5029760;28;20200;-76
2024/01/18 02:44:02;;;;;;;9.27;7.05;;;3.20;62.00;5.10;99276.00;;;;5031012;28;20210;-75
2024/01/18 02:46:33;;;;;;;8.43;6.07;;;3.20;62.00;5.00;99277.00;;;;5028459;28;20230;-76
2024/01/18 02:49:00;;;;;;;9.63;6.20;;;3.10;62.00;5.00;99275.00;;;;5030099;28;20192;-76
2024/01/18 02:51:27;;;;;;;9.43;5.75;;;3.10;62.00;5.00;99270.00;;;;5031257;28;20198;-76
2024/01/18 02:53:55;;;;;;;6.72;4.95;;;3.10;62.10;5.00;99272.00;;;;5030158;28;20645;-76
2024/01/18 02:56:22;;;;;;;6.25;5.15;;;3.10;62.10;5.00;99277.00;;;;5029980;28;20189;-75
2024/01/18 02:58:49;;;;;;;9.13;4.90;;;3.00;62.10;4.90;99278.00;;;;5030527;28;20218;-77
2024/01/18 03:01:18;;;;;;;7.35;5.22;;;3.00;62.10;4.90;99270.00;;;;5030413;28;20196;-76
2024/01/18 03:03:45;;;;;;;6.95;5.10;;;3.00;62.10;4.90;99273.00;;;;5029682;28;20265;-76
2024/01/18 03:06:12;;;;;;;6.65;4.80;;;3.00;62.10;4.90;99276.00;;;;5031283;28;20281;-75
2024/01/18 03:08:39;;;;;;;7.97;4.72;;;3.00;62.00;4.90;99266.00;;;;5030278;28;20282;-76
2024/01/18 03:11:07;;;;;;;10.25;5.78;;;2.90;61.90;4.80;99278.00;;;;5031451;28;20582;-75
2024/01/18 03:13:34;;;;;;;5.60;4.93;;;2.90;61.90;4.80;99276.00;;;;5042855;28;20234;-75
2024/01/18 03:16:01;;;;;;;6.28;5.07;;;2.90;62.00;4.80;99267.00;;;;5031797;28;20201;-75
2024/01/18 03:18:29;;;;;;;6.95;4.80;;;2.90;62.00;4.80;99277.00;;;;5029889;28;20200;-75
2024/01/18 03:20:56;;;;;;;7.68;5.07;;;2.80;62.00;4.80;99286.00;;;;5037320;28;20254;-75
2024/01/18 03:23:23;;;;;;;6.35;4.80;;;2.80;62.00;4.70;99280.00;;;;5028902;28;20242;-76
2024/01/18 03:25:50;;;;;;;6.85;4.57;;;2.80;62.00;4.70;99285.00;;;;5030015;28;20228;-76
2024/01/18 03:28:17;;;;;;;7.18;4.82;;;2.80;62.00;4.60;99288.00;;;;5029167;28;20576;-76
2024/01/18 03:30:44;;;;;;;6.97;4.55;;;2.70;62.00;4.60;99287.00;;;;5035917;28;20192;-74
2024/01/18 03:33:11;;;;;;;6.32;4.70;;;2.70;62.00;4.60;99284.00;;;;5023038;28;20200;-76
2024/01/18 03:35:41;;;;;;;8.20;4.90;;;2.70;62.00;4.60;99289.00;;;;5026601;28;20200;-75
2024/01/18 03:38:08;;;;;;;5.82;4.50;;;2.70;62.10;4.60;99283.00;;;;5029817;28;20291;-76
2024/01/18 03:40:37;;;;;;;6.18;4.40;;;2.70;62.10;4.60;99290.00;;;;5029924;28;20204;-76
2024/01/18 03:43:04;;;;;;;7.32;4.75;;;2.60;62.00;4.60;99289.00;;;;5032202;28;20687;-76
2024/01/18 03:45:32;;;;;;;9.95;5.60;;;2.60;62.00;4.60;99292.00;;;;5033480;28;20665;-76
2024/01/18 03:47:59;;;;;;;7.43;4.88;;;2.60;62.00;4.50;99296.00;;;;5040951;28;20192;-76
2024/01/18 03:50:26;;;;;;;6.50;4.80;;;2.60;62.00;4.50;99291.00;;;;5035216;28;20195;-76
2024/01/18 03:52:54;;;;;;;7.25;4.80;;;2.60;62.00;4.50;99306.00;;;;5033461;28;20199;-75
2024/01/18 03:55:21;;;;;;;8.15;4.90;;;2.50;62.00;4.50;99309.00;;;;5034572;28;20845;-76
2024/01/18 03:57:48;;;;;;;9.75;5.60;;;2.50;62.00;4.40;99305.00;;;;5034840;28;20204;-76
2024/01/18 04:00:16;;;;;;;5.28;4.47;;;2.50;62.10;4.40;99311.00;;;;5033897;28;20211;-76
2024/01/18 04:02:44;;;;;;;6.28;4.15;;;2.40;62.00;4.40;99306.00;;;;5034665;28;20210;-76
2024/01/18 04:05:11;;;;;;;8.50;4.35;;;2.50;62.00;4.40;99309.00;;;;5035556;28;20192;-76
2024/01/18 04:07:38;;;;;;;6.00;3.85;;;2.40;62.00;4.40;99297.00;;;;5034779;28;20230;-76
2024/01/18 04:10:09;;;;;;;7.88;4.28;;;2.40;62.70;4.30;99307.00;;;;5033933;28;20295;-76
2024/01/18 04:12:37;;;;;;;7.43;4.30;;;2.30;62.00;4.30;99300.00;;;;5034102;28;20245;-76
2024/01/18 04:15:05;;;;;;;7.05;4.30;;;2.30;62.10;4.30;99309.00;;;;5034338;28;20200;-76
2024/01/18 04:17:32;;;;;;;6.00;4.45;;;2.30;62.10;4.20;99317.00;;;;5034499;28;20228;-76
2024/01/18 04:20:00;;;;;;;5.68;4.13;;;2.30;62.10;4.30;99304.00;;;;5033633;28;20707;-75
2024/01/18 04:22:27;;;;;;;6.05;4.25;;;2.30;62.10;4.20;99318.00;;;;5036770;28;20810;-74
2024/01/18 04:24:54;;;;;;;4.82;4.05;;;2.20;62.00;4.20;99326.00;;;;5025001;28;21875;-76
2024/01/18 04:27:23;;;;;;;7.05;3.85;;;2.20;62.00;4.20;99334.00;;;;5033586;28;20228;-76
2024/01/18 04:29:50;;;;;;;4.15;3.55;;;2.20;62.10;4.20;99334.00;;;;5029853;28;20193;-76
2024/01/18 04:32:17;;;;;;;8.50;4.32;;;2.20;62.20;4.10;99331.00;;;;5028915;28;20197;-76
2024/01/18 04:34:44;;;;;;;6.63;4.07;;;2.10;62.10;4.10;99337.00;;;;5034217;28;20227;-76
2024/01/18 04:37:11;;;;;;;5.78;3.72;;;2.10;62.10;4.10;99334.00;;;;5035453;28;20192;-76
2024/01/18 04:39:38;;;;;;;5.80;4.03;;;2.10;62.10;4.10;99337.00;;;;5040344;28;20659;-76
2024/01/18 04:42:08;;;;;;;6.93;3.90;;;2.10;62.10;4.10;99335.00;;;;5032762;28;20200;-75
2024/01/18 04:44:36;;;;;;;5.47;4.05;;;2.10;62.10;4.00;99340.00;;;;5014153;28;20197;-76
2024/01/18 04:47:03;;;;;;;4.95;3.90;;;2.10;62.10;4.00;99336.00;;;;5022010;28;20226;-76
2024/01/18 04:49:31;;;;;;;6.93;4.32;;;2.00;62.10;4.00;99350.00;;;;5035553;28;20211;-76
2024/01/18 04:51:59;;;;;;;6.07;3.88;;;2.00;62.10;4.00;99356.00;;;;5033849;28;20185;-76
2024/01/18 04:54:26;;;;;;;6.43;4.07;;;2.00;62.10;4.00;99353.00;;;;5034829;28;20211;-76
2024/01/18 04:56:53;;;;;;;5.25;3.80;;;2.00;62.20;3.90;99353.00;;;;5030941;28;20223;-75
2024/01/18 04:59:20;;;;;;;5.82;4.20;;;2.00;62.30;4.00;99355.00;;;;5024286;28;20200;-76
2024/01/18 05:01:49;;;;;;;4.93;3.67;;;2.00;62.40;3.90;99367.00;;;;5034062;28;20197;-76
2024/01/18 05:04:18;;;;;;;5.43;3.63;;;1.90;62.20;3.90;99366.00;;;;5033978;28;20211;-76
2024/01/18 05:06:45;;;;;;;7.75;3.85;;;1.90;62.20;3.90;99372.00;;;;5029653;28;20772;-76
2024/01/18 05:09:16;;;;;;;5.22;3.55;;;1.90;62.20;3.90;99377.00;;;;5022312;28;20196;-76
2024/01/18 05:11:43;;;;;;;4.97;3.22;;;1.90;62.30;3.90;99374.00;;;;5039883;28;20204;-76
2024/01/18 05:14:11;;;;;;;5.03;3.78;;;1.90;62.30;3.90;99376.00;;;;5048958;28;20200;-76
2024/01/18 05:16:39;;;;;;;5.10;3.47;;;1.80;62.30;3.80;99368.00;;;;5027349;28;20197;-76
2024/01/18 05:19:08;;;;;;;4.45;3.42;;;1.80;62.30;3.80;99377.00;;;;5021261;28;20287;-76
2024/01/18 05:21:35;;;;;;;6.20;3.60;;;1.80;62.30;3.80;99378.00;;;;5032946;28;20642;-76
2024/01/18 05:24:03;;;;;;;6.68;3.15;;;1.80;62.20;3.80;99378.00;;;;5033192;28;20200;-76
2024/01/18 05:26:31;;;;;;;5.32;3.70;;;1.80;62.30;3.80;99378.00;;;;5032333;28;20236;-76
2024/01/18 05:28:58;;;;;;;5.65;3.72;;;1.80;62.40;3.80;99376.00;;;;5034870;28;20204;-76
2024/01/18 05:31:25;;;;;;;5.50;3.75;;;1.80;62.40;3.80;99387.00;;;;5032409;28;20188;-76
2024/01/18 05:33:52;;;;;;;5.88;3.33;;;1.80;62.40;3.80;99390.00;;;;5032267;28;20220;-76
2024/01/18 05:36:20;;;;;;;5.80;3.38;;;1.80;62.40;3.70;99395.00;;;;5032636;28;20566;-76
2024/01/18 05:38:47;;;;;;;8.57;3.03;;;1.70;62.70;3.80;99400.00;;;;5033056;28;20197;-76
2024/01/18 05:41:15;;;;;;;5.95;3.38;;;1.70;62.20;3.70;99407.00;;;;5032264;28;20208;-76
2024/01/18 05:43:41;;;;;;;4.80;3.35;;;1.70;62.20;3.70;99406.00;;;;5032317;28;20286;-76
2024/01/18 05:46:09;;;;;;;3.40;2.83;;;1.70;62.20;3.70;99398.00;;;;5037958;28;20207;-76
2024/01/18 05:48:36;;;;;;;3.92;2.58;;;1.70;62.30;3.70;99405.00;;;;5032114;28;20208;-76
2024/01/18 05:51:03;;;;;;;5.50;2.80;;;1.70;62.20;3.70;99416.00;;;;5031781;28;20200;-76
2024/01/18 05:53:32;;;;;;;4.65;2.78;;;1.70;62.20;3.70;99418.00;;;;5032680;28;20198;-76
2024/01/18 05:55:59;;;;;;;5.30;2.80;;;1.70;62.20;3.60;99421.00;;;;5032095;28;20199;-76
2024/01/18 05:58:26;;;;;;;4.82;2.63;;;1.60;62.30;3.60;99421.00;;;;5031443;28;20207;-76
2024/01/18 06:00:53;;;;;;;5.75;2.63;;;1.60;62.30;3.60;99421.00;;;;5031490;28;20224;-75
2024/01/18 06:03:20;;;;;;;2.80;2.22;;;1.60;62.20;3.60;99428.00;;;;5031386;28;20286;-76
2024/01/18 06:05:47;;;;;;;4.72;2.47;;;1.60;62.20;3.60;99419.00;;;;5030983;28;20196;-76
2024/01/18 06:08:15;;;;;;;3.88;2.33;;;1.60;62.20;3.60;99432.00;;;;5030416;28;20258;-76
2024/01/18 06:10:44;;;;;;;4.35;3.20;;;1.60;62.10;3.60;99434.00;;;;5043271;28;20200;-76
2024/01/18 06:13:11;;;;;;;5.90;3.63;;;1.60;62.10;3.60;99439.00;;;;5033112;28;20219;-76
2024/01/18 06:15:39;;;;;;;8.23;4.85;;;1.60;62.10;3.60;99434.00;;;;5031569;28;20192;-76
2024/01/18 06:18:06;;;;;;;15.18;9.20;;;1.60;62.10;3.60;99440.00;;;;5031606;28;20677;-76
2024/01/18 06:20:33;;;;;;;14.98;8.98;;;1.50;62.00;3.50;99445.00;;;;5037226;28;20204;-76
2024/01/18 06:23:01;;;;;;;13.35;8.30;;;1.50;62.10;3.50;99459.00;;;;5031033;28;20235;-75
2024/01/18 06:25:28;;;;;;;11.80;7.75;;;1.50;62.20;3.50;99453.00;;;;5031184;28;20216;-75
2024/01/18 06:27:57;;;;;;;11.85;7.47;;;1.40;62.10;3.40;99459.00;;;;5031273;28;20216;-75
2024/01/18 06:30:24;;;;;;;7.82;4.85;;;1.50;62.20;3.40;99462.00;;;;5031153;28;20295;-76
2024/01/18 06:32:51;;;;;;;7.32;4.07;;;1.40;62.10;3.40;99473.00;;;;5026319;28;20650;-76
2024/01/18 06:35:18;;;;;;;5.40;3.45;;;1.40;62.10;3.40;99478.00;;;;5032059;28;20210;-75
2024/01/18 06:37:45;;;;;;;4.80;3.20;;;1.40;62.20;3.40;99479.00;;;;5041936;28;20573;-75
2024/01/18 06:40:13;;;;;;;7.80;3.50;;;1.40;62.20;3.40;99476.00;;;;5030532;28;20196;-75
2024/01/18 06:42:40;;;;;;;4.18;3.15;;;1.40;62.30;3.40;99473.00;;;;5030193;28;20658;-75
2024/01/18 06:45:11;;;;;;;3.45;2.42;;;1.30;62.20;3.30;99482.00;;;;5031937;28;20214;-75
2024/01/18 06:47:38;;;;;;;5.75;3.28;;;1.30;62.20;3.40;99477.00;;;;5031953;28;20579;-76
2024/01/18 06:50:05;;;;;;;5.50;3.03;;;1.30;62.20;3.30;99491.00;;;;5026114;28;20207;-75
2024/01/18 06:52:33;;;;;;;4.35;3.17;;;1.30;62.30;3.30;99487.00;;;;5031390;28;20196;-75
2024/01/18 06:55:00;;;;;;;6.47;4.57;;;1.30;62.20;3.30;99489.00;;;;5048899;28;20679;-75
2024/01/18 06:57:27;;;;;;;6.22;4.13;;;1.30;62.20;3.30;99492.00;;;;5037448;28;20200;-76
2024/01/18 06:59:54;;;;;;;5.65;3.95;;;1.30;62.20;3.30;99499.00;;;;5025885;28;20286;-75
2024/01/18 07:02:22;;;;;;;5.40;4.10;;;1.20;62.20;3.30;99500.00;;;;5029256;28;20737;-76
2024/01/18 07:04:49;;;;;;;6.55;4.22;;;1.20;62.10;3.30;99503.00;;;;5028450;28;20207;-74
2024/01/18 07:07:17;;;;;;;7.72;5.40;;;1.20;62.10;3.10;99509.00;;;;5029962;28;20457;-72
2024/01/18 07:09:44;;;;;;;7.05;4.88;;;1.20;62.30;3.20;99522.00;;;;5030715;28;20200;-75
2024/01/18 07:12:11;;;;;;;5.85;4.13;;;1.20;62.60;3.30;99517.00;;;;5038851;28;20554;-75
2024/01/18 07:14:39;;;;;;;6.22;4.50;;;1.20;62.60;3.30;99513.00;;;;5030898;28;20282;-75
2024/01/18 07:17:06;;;;;;;5.05;3.58;;;1.20;62.40;3.30;99513.00;;;;5031950;28;20208;-75
2024/01/18 07:19:34;;;;;;;6.88;4.15;;;1.20;62.40;3.20;99528.00;;;;5028324;28;20193;-75
2024/01/18 07:22:01;;;;;;;5.50;3.65;;;1.20;62.40;3.20;99532.00;;;;5028531;28;20223;-75
2024/01/18 07:24:30;;;;;;;5.15;3.40;;;1.20;62.30;3.20;99526.00;;;;5028648;28;20195;-75
2024/01/18 07:26:58;;;;;;;5.43;3.55;;;1.20;62.30;3.20;99534.00;;;;5028636;28;20231;-76
2024/01/18 07:29:25;;;;;;;6.70;3.25;;;1.10;62.40;3.20;99543.00;;;;5022235;28;20209;-75
2024/01/18 07:31:52;;;;;;;5.20;3.08;;;1.20;62.40;3.20;99540.00;;;;5021190;28;20200;-76
2024/01/18 07:34:19;;;;;;;5.45;3.10;;;1.20;62.40;3.20;99529.00;;;;5023539;28;20284;-76
2024/01/18 07:36:48;;;;;;;5.80;3.95;;;1.10;62.40;3.20;99532.00;;;;5030265;28;20193;-75
2024/01/18 07:39:15;;;;;;;5.07;3.13;;;1.20;63.20;3.20;99528.00;;;;5027519;28;20193;-75
2024/01/18 07:41:42;;;;;;;4.43;3.20;;;1.10;62.40;3.20;99542.00;;;;5025335;28;20296;-75
2024/01/18 07:44:11;;;;;;;6.78;3.80;;;1.10;62.40;3.20;99542.00;;;;5028734;28;20204;-76
2024/01/18 07:46:38;;;;;;;3.65;2.85;;;1.10;62.40;3.20;99552.00;;;;5022481;28;20224;-76
2024/01/18 07:49:05;;;;;;;5.28;3.70;;;1.10;62.40;3.20;99555.00;;;;5016294;28;20635;-75
2024/01/18 07:51:32;;;;;;;5.55;3.45;;;1.10;62.50;3.20;99551.00;;;;5019688;28;20200;-73
2024/01/18 07:54:01;;;;;;;6.88;4.28;;;1.20;62.50;3.20;99560.00;;;;5034445;28;20204;-75
2024/01/18 07:56:29;;;;;;;6.18;4.10;;;1.10;62.40;3.20;99560.00;;;;5034780;28;20204;-75
2024/01/18 07:58:56;;;;;;;8.23;4.47;;;1.20;62.40;3.20;99560.00;;;;5034853;28;20204;-75
2024/01/18 08:01:23;;;;;;;9.35;4.57;;;1.20;62.50;3.20;99557.00;;;;5038128;28;20196;-75
2024/01/18 08:03:50;;;;;;;6.03;3.80;;;1.20;62.50;3.20;99571.00;;;;5034283;28;20192;-75
2024/01/18 08:06:17;;;;;;;5.13;3.78;;;1.20;62.50;3.20;99583.00;;;;5034080;28;20200;-76
2024/01/18 08:08:44;;;;;;;5.30;4.13;;;1.10;62.40;3.20;99584.00;;;;5034396;28;20230;-75
2024/01/18 08:11:15;;;;;;;6.75;5.03;;;1.20;62.40;3.20;99593.00;;;;5035139;28;20200;-76
2024/01/18 08:13:42;;;;;;;5.70;4.13;;;1.20;62.50;3.20;99588.00;;;;5035280;28;20200;-76
2024/01/18 08:16:09;;;;;;;5.45;4.30;;;1.20;62.60;3.20;99600.00;;;;5033031;28;20200;-75
2024/01/18 08:18:37;;;;;;;5.60;4.43;;;1.20;62.60;3.20;99603.00;;;;5034635;28;20282;-75
2024/01/18 08:21:05;;;;;;;5.43;4.40;;;1.20;62.70;3.30;99600.00;;;;5043736;28;20298;-75
2024/01/18 08:23:32;;;;;;;9.25;4.32;;;1.20;62.70;3.30;99605.00;;;;5035037;28;20230;-75
2024/01/18 08:25:59;;;;;;;6.13;4.32;;;1.20;62.70;3.30;99613.00;;;;5031856;28;20216;-75
2024/01/18 08:28:28;;;;;;;8.75;3.88;;;1.20;62.70;3.30;99615.00;;;;5033309;28;20228;-75
2024/01/18 08:30:55;;;;;;;4.95;4.10;;;1.30;62.80;3.40;99627.00;;;;5034365;28;20654;-75
2024/01/18 08:33:22;;;;;;;6.43;3.92;;;1.30;62.80;3.40;99626.00;;;;5032654;28;20299;-76
2024/01/18 08:35:49;;;;;;;6.80;4.45;;;1.30;62.90;3.40;99629.00;;;;5039404;28;20206;-74
2024/01/18 08:38:16;;;;;;;6.50;4.22;;;1.30;62.90;3.50;99631.00;;;;5053576;28;20204;-76
2024/01/18 08:40:43;;;;;;;6.78;3.70;;;1.40;63.00;3.50;99642.00;;;;5054302;28;20199;-75
2024/01/18 08:43:10;;;;;;;8.55;4.90;;;1.40;63.00;3.60;99643.00;;;;5053322;28;20203;-76
2024/01/18 08:45:41;;;;;;;8.60;5.70;;;1.40;63.00;3.60;99654.00;;;;5053091;28;20211;-75
2024/01/18 08:48:08;;;;;;;8.05;5.88;;;1.50;63.10;3.60;99658.00;;;;5053557;28;20685;-75
2024/01/18 08:50:35;;;;;;;9.15;6.00;;;1.50;63.10;3.70;99660.00;;;;5034121;28;20239;-75
2024/01/18 08:53:02;;;;;;;11.02;6.40;;;1.60;63.20;3.70;99663.00;;;;5043094;28;20204;-75
2024/01/18 08:55:30;;;;;;;10.50;6.90;;;1.60;63.20;3.80;99668.00;;;;5053881;28;20199;-75
2024/01/18 08:57:57;;;;;;;9.43;6.93;;;1.70;63.20;3.80;99667.00;;;;5043199;28;20212;-76
2024/01/18 09:00:24;;;;;;;8.55;5.90;;;1.70;63.20;3.80;99663.00;;;;5034199;28;20201;-76
2024/01/18 09:02:52;;;;;;;7.65;5.88;;;1.70;63.20;3.90;99674.00;;;;5033338;28;20202;-75
2024/01/18 09:05:20;;;;;;;8.10;6.03;;;1.80;63.10;3.90;99691.00;;;;5040117;28;20200;-75
2024/01/18 09:07:47;;;;;;;6.78;5.65;;;1.90;63.10;4.00;99691.00;;;;5054090;28;20219;-73
2024/01/18 09:10:15;;;;;;;6.97;4.80;;;1.80;63.10;4.00;99691.00;;;;5053637;28;20218;-74
2024/01/18 09:12:43;;;;;;;8.95;4.82;;;1.90;63.20;4.10;99692.00;;;;5050166;28;20545;-73
2024/01/18 09:15:11;;;;;;;7.10;4.90;;;1.90;63.90;4.10;99694.00;;;;5028704;28;20236;-73
2024/01/18 09:17:38;;;;;;;8.43;4.63;;;2.00;63.30;4.20;99698.00;;;;5032191;28;20240;-73
2024/01/18 09:20:09;;;;;;;6.00;5.10;;;2.10;63.40;4.20;99699.00;;;;5040125;28;20321;-73
2024/01/18 09:22:36;;;;;;;7.05;4.75;;;2.10;63.30;4.30;99707.00;;;;5033586;28;20308;-73
2024/01/18 09:25:04;;;;;;;4.88;4.13;;;2.10;63.40;4.30;99704.00;;;;5032804;28;20220;-72
2024/01/18 09:27:31;;;;;;;5.43;4.18;;;2.20;63.30;4.40;99715.00;;;;5038067;28;20197;-73
2024/01/18 09:29:58;;;;;;;6.55;5.40;;;2.30;63.40;4.40;99720.00;;;;5031775;28;20293;-73
2024/01/18 09:32:25;;;;;;;7.43;4.38;;;2.30;63.40;4.50;99719.00;;;;5033297;28;20634;-73
2024/01/18 09:34:52;;;;;;;5.78;4.07;;;2.40;63.40;4.60;99727.00;;;;5032985;28;20558;-73
2024/01/18 09:37:21;;;;;;;5.63;3.88;;;2.40;64.10;4.60;99737.00;;;;5032293;28;20222;-73
2024/01/18 09:39:48;;;;;;;5.25;4.50;;;2.50;63.50;4.70;99742.00;;;;5031787;28;20544;-73
2024/01/18 09:42:18;;;;;;;7.15;4.30;;;2.50;63.50;4.70;99747.00;;;;5032260;28;20188;-73
2024/01/18 09:44:48;;;;;;;5.95;3.83;;;2.60;63.60;4.70;99745.00;;;;5047663;28;20211;-73
2024/01/18 09:47:16;;;;;;;6.88;4.38;;;2.60;63.60;4.80;99763.00;;;;5045480;28;20202;-73
2024/01/18 09:49:46;;;;;;;7.82;4.50;;;2.70;63.70;4.90;99764.00;;;;5032764;28;20250;-73
2024/01/18 09:52:13;;;;;;;5.47;4.82;;;2.70;63.70;5.00;99775.00;;;;5032071;28;20230;-73
2024/01/18 09:54:42;;;;;;;8.73;6.68;;;2.80;64.50;5.00;99772.00;;;;5032389;28;20645;-73
2024/01/18 09:57:13;;;;;;;8.45;6.40;;;2.90;63.90;5.10;99771.00;;;;5031771;28;20200;-72
2024/01/18 09:59:45;;;;;;;7.85;5.57;;;3.00;64.00;5.10;99788.00;;;;5032151;28;20201;-73
2024/01/18 10:02:12;;;;;;;6.57;5.53;;;3.00;64.00;5.20;99785.00;;;;5048983;28;20203;-73
2024/01/18 10:04:42;;;;;;;8.68;6.45;;;3.10;64.00;5.30;99797.00;;;;5032165;28;20197;-73
2024/01/18 10:07:09;;;;;;;6.43;4.80;;;3.20;64.00;5.40;99809.00;;;;5032221;28;20199;-72
2024/01/18 10:09:36;;;;;;;9.30;5.60;;;3.20;64.10;5.40;99820.00;;;;5031930;28;20311;-73
2024/01/18 10:12:05;;;;;;;5.93;4.82;;;3.30;64.10;5.50;99811.00;;;;5031377;28;20670;-72
2024/01/18 10:14:41;;;;;;;6.32;5.18;;;3.40;64.20;5.50;99825.00;;;;5031841;28;20200;-72
2024/01/18 10:17:08;;;;;;;6.88;5.13;;;3.50;64.30;5.70;99826.00;;;;5033653;28;20200;-72
2024/01/18 10:19:35;;;;;;;5.55;4.32;;;3.60;64.40;5.70;99829.00;;;;5051953;28;20634;-72
2024/01/18 10:22:02;;;;;;;6.88;4.60;;;3.60;64.50;5.80;99828.00;;;;5051712;28;20749;-73
2024/01/18 10:24:30;;;;;;;5.13;3.65;;;3.70;64.40;5.90;99832.00;;;;5051590;28;20191;-72
2024/01/18 10:27:05;;;;;;;6.82;3.97;;;3.80;64.40;5.90;99841.00;;;;5029874;28;20577;-73
2024/01/18 10:29:35;;;;;;;4.70;3.67;;;3.90;64.50;6.10;99848.00;;;;5012373;28;20260;-73
2024/01/18 10:32:03;;;;;;;4.18;3.35;;;4.00;64.50;6.20;99858.00;;;;5020880;28;20454;-72
2024/01/18 10:34:35;;;;;;;5.35;3.35;;;4.10;64.50;6.20;99858.00;;;;5021899;28;20204;-72
2024/01/18 10:37:02;;;;;;;5.68;2.60;;;4.20;64.40;6.30;99862.00;;;;5024786;28;20200;-72
2024/01/18 10:39:40;;;;;;;3.70;2.63;;;4.30;64.40;6.30;99862.00;;;;5014676;28;20203;-72
2024/01/18 10:42:09;;;;;;;3.10;2.40;;;4.40;64.40;6.50;99867.00;;;;5012117;28;20211;-72
2024/01/18 10:44:41;;;;;;;3.17;1.85;;;4.50;64.30;6.60;99867.00;;;;5032189;28;20599;-72
2024/01/18 10:47:12;;;;;;;3.88;2.30;;;4.60;64.20;6.60;99861.00;;;;5023782;28;20211;-72
2024/01/18 10:49:41;;;;;;;5.22;2.63;;;4.70;64.10;6.80;99867.00;;;;5027483;28;20258;-72
2024/01/18 10:52:09;;;;;;;2.70;2.15;;;4.80;64.10;6.80;99871.00;;;;5040840;28;20748;-72
2024/01/18 10:54:37;;;;;;;4.00;2.45;;;4.90;63.90;7.00;99867.00;;;;5034832;28;20204;-72
2024/01/18 10:57:05;;;;;;;3.33;2.50;;;5.00;64.00;7.10;99886.00;;;;5030944;28;20199;-72
2024/01/18 10:59:34;;;;;;;5.28;2.30;;;5.10;64.10;7.30;99897.00;;;;5031548;28;20200;-72
2024/01/18 11:02:02;;;;;;;3.17;2.63;;;5.30;64.30;7.50;99915.00;;;;5031095;28;20199;-72
2024/01/18 11:04:30;;;;;;;3.40;2.30;;;5.40;64.30;7.60;99905.00;;;;5030321;28;20227;-72
2024/01/18 11:06:59;;;;;;;3.10;2.25;;;5.60;64.20;7.70;99909.00;;;;5025437;28;20218;-71
2024/01/18 11:09:29;;;;;;;2.70;2.15;;;5.70;64.10;7.90;99911.00;;;;5043490;28;20227;-72